createdAt,value
2023-01-28T10:44:00.590Z,7.00
2023-01-28T10:46:10.927Z,5.35
2023-01-28T10:48:23.191Z,4.76
2023-01-28T10:50:30.566Z,4.58
2023-01-28T10:52:35.735Z,4.40
2023-01-28T10:54:40.735Z,4.37
2023-01-28T10:56:47.098Z,4.35
2023-01-28T10:59:01.597Z,4.22
2023-01-28T11:01:11.436Z,4.34
2023-01-28T11:03:23.919Z,4.24
2023-01-28T11:05:30.974Z,4.25
2023-01-28T11:07:36.637Z,4.36
2023-01-28T11:09:41.855Z,4.49
2023-01-28T11:11:46.862Z,4.40
2023-01-28T11:13:54.528Z,4.33
2023-01-28T11:16:05.531Z,4.39
2023-01-28T11:18:24.879Z,4.50
2023-01-28T11:20:36.101Z,4.51
2023-01-28T11:22:48.707Z,4.71
2023-01-28T11:24:54.533Z,4.69
2023-01-28T11:27:02.309Z,4.74
2023-01-28T11:29:09.413Z,4.69
2023-01-28T11:31:19.938Z,4.75
2023-01-28T11:33:29.291Z,4.96
2023-01-28T11:35:35.315Z,4.88
2023-01-28T11:37:40.946Z,4.51
2023-01-28T11:39:49.017Z,4.68
2023-01-28T11:41:55.920Z,4.61
2023-01-28T11:44:02.462Z,4.87
2023-01-28T11:46:29.044Z,4.90
2023-01-28T11:48:47.751Z,4.91
2023-01-28T11:50:59.755Z,5.08
2023-01-28T11:53:25.772Z,5.14
2023-01-28T11:55:48.735Z,4.95
2023-01-28T11:58:06.555Z,4.96
2023-01-28T12:00:38.138Z,5.09
2023-01-28T12:02:54.139Z,5.31
2023-01-28T12:05:20.625Z,5.19
2023-01-28T12:07:40.553Z,5.34
2023-01-28T12:09:55.495Z,5.44
2023-01-28T12:12:15.204Z,5.35
2023-01-28T12:14:30.841Z,5.62
2023-01-28T12:16:57.076Z,5.28
2023-01-28T12:19:23.236Z,5.33
2023-01-28T12:21:40.016Z,5.68
2023-01-28T12:24:03.549Z,5.86
2023-01-28T12:26:17.602Z,5.69
2023-01-28T12:28:35.751Z,5.80
2023-01-28T12:30:55.361Z,6.06
2023-01-28T12:33:17.591Z,6.34
2023-01-28T12:35:36.622Z,6.48
2023-01-28T12:37:56.620Z,6.47
2023-01-28T12:40:20.719Z,6.53
2023-01-28T12:42:34.621Z,6.57
2023-01-28T12:44:46.623Z,6.41
2023-01-28T12:46:57.436Z,6.13
2023-01-28T12:49:08.582Z,6.13
2023-01-28T12:51:23.374Z,6.17
2023-01-28T12:53:35.756Z,6.07
2023-01-28T12:55:46.691Z,6.09
2023-01-28T12:57:53.720Z,6.06
2023-01-28T13:00:21.903Z,6.03
2023-01-28T13:02:30.368Z,6.06
2023-01-28T13:04:43.275Z,5.97
2023-01-28T13:06:59.304Z,6.29
2023-01-28T13:09:13.715Z,6.37
2023-01-28T13:11:22.872Z,6.38
2023-01-28T13:13:33.982Z,6.59
2023-01-28T13:15:43.047Z,6.72
2023-01-28T13:17:57.848Z,6.65
2023-01-28T13:20:04.719Z,6.75
2023-01-28T13:22:31.743Z,6.77
2023-01-28T13:24:36.662Z,6.94
2023-01-28T13:26:48.090Z,6.97
2023-01-28T13:28:54.498Z,6.90
2023-01-28T13:31:06.710Z,7.04
2023-01-28T13:33:32.383Z,6.80
2023-01-28T13:35:40.675Z,6.79
2023-01-28T13:37:51.940Z,7.14
2023-01-28T13:40:05.354Z,6.69
2023-01-28T13:42:29.170Z,6.92
2023-01-28T13:44:37.469Z,7.20
2023-01-28T13:46:42.681Z,7.01
2023-01-28T13:48:52.371Z,6.70
2023-01-28T13:50:58.794Z,6.76
2023-01-28T13:53:20.630Z,6.90
2023-01-28T13:55:42.833Z,6.58
2023-01-28T13:58:22.777Z,6.44
2023-01-28T14:00:32.561Z,6.22
2023-01-28T14:02:58.592Z,6.42
2023-01-28T14:05:36.519Z,6.72
2023-01-28T14:07:59.193Z,6.77
2023-01-28T14:10:25.747Z,6.44
2023-01-28T14:12:52.281Z,6.34
2023-01-28T14:15:12.409Z,6.36
2023-01-28T14:17:31.581Z,6.30
2023-01-28T14:19:41.675Z,6.12
2023-01-28T14:21:46.689Z,5.86
2023-01-28T14:23:54.147Z,5.92
2023-01-28T14:26:12.567Z,5.90
2023-01-28T14:28:23.806Z,5.76
2023-01-28T14:30:36.214Z,6.19
2023-01-28T14:32:52.854Z,6.47
2023-01-28T14:34:59.593Z,6.40
2023-01-28T14:37:10.595Z,6.02
2023-01-28T14:39:21.992Z,6.08
2023-01-28T14:41:31.519Z,6.35
2023-01-28T14:43:36.859Z,6.23
2023-01-28T14:46:00.497Z,6.48
2023-01-28T14:48:28.489Z,6.45
2023-01-28T14:50:46.711Z,6.11
2023-01-28T14:53:13.088Z,6.34
2023-01-28T14:55:36.161Z,5.96
2023-01-28T14:57:53.311Z,5.79
2023-01-28T15:00:01.831Z,5.75
2023-01-28T15:02:20.152Z,5.97
2023-01-28T15:04:30.016Z,6.07
2023-01-28T15:06:38.793Z,5.90
2023-01-28T15:08:43.768Z,5.99
2023-01-28T15:10:49.209Z,6.08
2023-01-28T15:13:01.539Z,6.05
2023-01-28T15:15:17.439Z,5.94
2023-01-28T15:17:29.674Z,6.04
2023-01-28T15:19:40.106Z,5.99
2023-01-28T15:21:46.942Z,5.86
2023-01-28T15:23:54.874Z,5.75
2023-01-28T15:26:07.304Z,5.60
2023-01-28T15:28:24.695Z,5.45
2023-01-28T15:30:33.015Z,5.45
2023-01-28T15:32:39.465Z,5.41
2023-01-28T15:34:52.125Z,5.33
2023-01-28T15:36:57.191Z,5.49
2023-01-28T15:39:03.471Z,5.55
2023-01-28T15:41:11.906Z,5.58
2023-01-28T15:43:24.901Z,5.65
2023-01-28T15:45:32.913Z,5.54
2023-01-28T15:47:40.938Z,5.52
2023-01-28T15:49:48.787Z,5.31
2023-01-28T15:51:54.775Z,5.27
2023-01-28T15:54:04.785Z,5.35
2023-01-28T15:56:12.313Z,5.40
2023-01-28T15:58:30.457Z,5.42
2023-01-28T16:00:36.384Z,5.47
2023-01-28T16:02:47.040Z,5.45
2023-01-28T16:05:03.437Z,5.38
2023-01-28T16:07:08.621Z,5.43
2023-01-28T16:09:24.774Z,5.36
2023-01-28T16:11:33.726Z,5.41
2023-01-28T16:13:46.873Z,5.40
2023-01-28T16:15:56.035Z,5.41
2023-01-28T16:18:00.982Z,5.31
2023-01-28T16:20:16.559Z,5.31
2023-01-28T16:22:24.972Z,5.29
2023-01-28T16:24:33.183Z,5.28
2023-01-28T16:26:40.983Z,5.20
2023-01-28T16:28:49.188Z,5.17
2023-01-28T16:30:54.172Z,5.07
2023-01-28T16:33:00.427Z,5.00
2023-01-28T16:35:07.176Z,4.93
2023-01-28T16:37:13.811Z,4.90
2023-01-28T16:39:19.256Z,4.83
2023-01-28T16:41:31.665Z,4.87
2023-01-28T16:43:36.795Z,4.90
2023-01-28T16:45:46.510Z,4.83
2023-01-28T16:47:52.081Z,4.84
2023-01-28T16:49:57.439Z,4.79
2023-01-28T16:52:04.099Z,4.77
2023-01-28T16:54:09.781Z,4.79
2023-01-28T16:56:30.443Z,4.79
2023-01-28T16:58:41.117Z,4.78
2023-01-28T17:00:48.902Z,4.77
2023-01-28T17:02:55.464Z,4.77
2023-01-28T17:05:03.485Z,4.77
2023-01-28T17:07:12.423Z,4.77
2023-01-28T17:09:18.609Z,4.75
2023-01-28T17:11:23.640Z,4.70
2023-01-28T17:13:29.186Z,4.70
2023-01-28T17:15:34.925Z,4.70
2023-01-28T17:17:43.502Z,4.62
2023-01-28T17:19:56.667Z,4.63
2023-01-28T17:22:01.687Z,4.65
2023-01-28T17:24:10.741Z,4.64
2023-01-28T17:26:17.435Z,4.61
2023-01-28T17:28:24.976Z,4.63
2023-01-28T17:30:30.100Z,4.62
2023-01-28T17:32:36.524Z,4.59
2023-01-28T17:34:50.383Z,4.57
2023-01-28T17:36:57.646Z,4.56
2023-01-28T17:39:11.288Z,4.55
2023-01-28T17:41:17.782Z,4.55
2023-01-28T17:43:22.745Z,4.51
2023-01-28T17:45:27.880Z,4.53
2023-01-28T17:47:34.006Z,4.47
2023-01-28T17:49:39.356Z,4.48
2023-01-28T17:51:48.763Z,4.46
2023-01-28T17:53:56.822Z,4.43
2023-01-28T17:56:02.013Z,4.41
2023-01-28T17:58:07.347Z,4.38
2023-01-28T18:00:16.348Z,4.38
2023-01-28T18:02:23.991Z,4.33
2023-01-28T18:04:28.831Z,4.28
2023-01-28T18:06:35.881Z,4.23
2023-01-28T18:08:44.200Z,4.24
2023-01-28T18:10:51.290Z,4.24
2023-01-28T18:12:56.536Z,4.22
2023-01-28T18:15:01.535Z,4.22
2023-01-28T18:17:07.435Z,4.17
2023-01-28T18:19:12.406Z,4.13
2023-01-28T18:21:53.844Z,4.16
2023-01-28T18:24:01.579Z,4.15
2023-01-28T18:26:08.597Z,4.14
2023-01-28T18:28:14.051Z,4.14
2023-01-28T18:30:19.716Z,4.14
2023-01-28T18:32:25.442Z,4.15
2023-01-28T18:34:32.057Z,4.13
2023-01-28T18:36:38.565Z,4.15
2023-01-28T18:38:43.512Z,4.13
2023-01-28T18:40:58.058Z,4.11
2023-01-28T18:43:04.319Z,4.10
2023-01-28T18:45:10.680Z,4.10
2023-01-28T18:47:18.963Z,4.10
2023-01-28T18:49:23.909Z,4.09
2023-01-28T18:51:30.652Z,4.05
2023-01-28T18:53:40.613Z,4.02
2023-01-28T18:55:45.628Z,4.03
2023-01-28T18:57:53.550Z,4.01
2023-01-28T18:59:58.612Z,3.92
2023-01-28T19:02:04.668Z,3.95
2023-01-28T19:04:15.922Z,3.87
2023-01-28T19:06:21.049Z,3.88
2023-01-28T19:08:28.833Z,3.88
2023-01-28T19:10:33.918Z,3.85
2023-01-28T19:12:39.515Z,3.83
2023-01-28T19:14:47.747Z,3.81
2023-01-28T19:16:52.620Z,3.81
2023-01-28T19:19:00.775Z,3.81
2023-01-28T19:21:06.192Z,3.81
2023-01-28T19:23:12.991Z,3.81
2023-01-28T19:25:18.850Z,3.79
2023-01-28T19:27:23.717Z,3.79
2023-01-28T19:29:29.631Z,3.81
2023-01-28T19:31:37.654Z,3.82
2023-01-28T19:33:42.853Z,3.80
2023-01-28T19:35:50.536Z,3.79
2023-01-28T19:37:55.404Z,3.77
2023-01-28T19:40:00.331Z,3.77
2023-01-28T19:42:07.790Z,3.74
2023-01-28T19:44:13.655Z,3.72
2023-01-28T19:46:22.132Z,3.73
2023-01-28T19:48:29.657Z,3.72
2023-01-28T19:50:35.338Z,3.71
2023-01-28T19:52:41.577Z,3.72
2023-01-28T19:54:46.571Z,3.72
2023-01-28T19:56:51.920Z,3.71
2023-01-28T19:58:57.888Z,3.70
2023-01-28T20:01:07.883Z,3.67
2023-01-28T20:03:16.535Z,3.73
2023-01-28T20:05:26.149Z,3.70
2023-01-28T20:07:31.353Z,3.69
2023-01-28T20:09:36.558Z,3.69
2023-01-28T20:11:42.630Z,3.69
2023-01-28T20:13:49.789Z,3.69
2023-01-28T20:15:54.715Z,3.66
2023-01-28T20:18:05.059Z,3.67
2023-01-28T20:20:12.618Z,3.64
2023-01-28T20:22:20.662Z,3.66
2023-01-28T20:24:25.543Z,3.65
2023-01-28T20:26:32.578Z,3.65
2023-01-28T20:28:37.511Z,3.64
2023-01-28T20:30:44.734Z,3.64
2023-01-28T20:32:49.593Z,3.63
2023-01-28T20:34:55.691Z,3.63
2023-01-28T20:37:00.604Z,3.63
2023-01-28T20:39:09.432Z,3.64
2023-01-28T20:41:17.549Z,3.65
2023-01-28T20:43:22.761Z,3.64
2023-01-28T20:45:27.568Z,3.62
2023-01-28T20:47:32.469Z,3.57
2023-01-28T20:49:37.288Z,3.60
2023-01-28T20:51:42.451Z,3.57
2023-01-28T20:53:49.716Z,3.54
2023-01-28T20:56:05.527Z,3.51
2023-01-28T20:58:10.969Z,3.48
2023-01-28T21:00:18.564Z,3.46
2023-01-28T21:02:24.105Z,3.43
2023-01-28T21:04:29.921Z,3.42
2023-01-28T21:06:37.039Z,3.40
2023-01-28T21:08:41.967Z,3.37
2023-01-28T21:10:47.100Z,3.35
2023-01-28T21:12:57.653Z,3.34
2023-01-28T21:15:02.567Z,3.33
2023-01-28T21:17:07.564Z,3.34
2023-01-28T21:19:12.622Z,3.34
2023-01-28T21:21:21.789Z,3.35
2023-01-28T21:23:28.028Z,3.34
2023-01-28T21:25:35.921Z,3.32
2023-01-28T21:27:41.176Z,3.35
2023-01-28T21:29:48.982Z,3.33
2023-01-28T21:31:54.186Z,3.31
2023-01-28T21:34:01.488Z,3.29
2023-01-28T21:36:12.555Z,3.27
2023-01-28T21:38:21.035Z,3.29
2023-01-28T21:40:25.890Z,3.29
2023-01-28T21:42:32.696Z,3.31
2023-01-28T21:44:37.577Z,3.30
2023-01-28T21:46:48.198Z,3.32
2023-01-28T21:48:57.122Z,3.34
2023-01-28T21:51:20.450Z,3.34
2023-01-28T21:53:25.677Z,3.32
2023-01-28T21:55:30.626Z,3.34
2023-01-28T21:57:35.843Z,3.31
2023-01-28T21:59:40.677Z,3.30
2023-01-28T22:01:51.703Z,3.30
2023-01-28T22:03:58.114Z,3.29
2023-01-28T22:06:02.960Z,3.27
2023-01-28T22:08:09.678Z,3.30
2023-01-28T22:10:18.218Z,3.33
2023-01-28T22:12:23.343Z,3.30
2023-01-28T22:14:28.505Z,3.27
2023-01-28T22:16:33.611Z,3.29
2023-01-28T22:18:41.647Z,3.28
2023-01-28T22:20:47.753Z,3.23
2023-01-28T22:22:52.900Z,3.28
2023-01-28T22:24:57.854Z,3.29
2023-01-28T22:27:02.683Z,3.28
2023-01-28T22:29:09.656Z,3.28
2023-01-28T22:31:19.047Z,3.30
2023-01-28T22:33:27.405Z,3.33
2023-01-28T22:35:37.136Z,3.33
2023-01-28T22:37:42.200Z,3.31
2023-01-28T22:39:48.114Z,3.30
2023-01-28T22:41:53.193Z,3.29
2023-01-28T22:43:58.477Z,3.30
2023-01-28T22:46:04.271Z,3.33
2023-01-28T22:48:09.779Z,3.33
2023-01-28T22:50:16.093Z,3.32
2023-01-28T22:52:25.997Z,3.33
2023-01-28T22:54:31.378Z,3.32
2023-01-28T22:56:36.569Z,3.34
2023-01-28T22:58:42.438Z,3.33
2023-01-28T23:00:49.265Z,3.34
2023-01-28T23:02:54.123Z,3.35
2023-01-28T23:04:58.961Z,3.34
2023-01-28T23:07:06.248Z,3.34
2023-01-28T23:09:13.840Z,3.34
2023-01-28T23:11:25.804Z,3.36
2023-01-28T23:13:55.316Z,3.38
2023-01-28T23:16:12.630Z,3.38
2023-01-28T23:18:35.089Z,3.42
2023-01-28T23:20:54.648Z,3.41
2023-01-28T23:23:12.418Z,3.39
2023-01-28T23:25:20.985Z,3.39
2023-01-28T23:27:26.478Z,3.42
2023-01-28T23:29:32.366Z,3.41
2023-01-28T23:31:37.354Z,3.40
2023-01-28T23:33:42.648Z,3.44
2023-01-28T23:35:50.320Z,3.42
2023-01-28T23:37:57.551Z,3.37
2023-01-28T23:40:02.454Z,3.40
2023-01-28T23:42:23.708Z,3.40
2023-01-28T23:44:30.172Z,3.41
2023-01-28T23:46:39.873Z,3.38
2023-01-28T23:48:45.900Z,3.39
2023-01-28T23:50:56.932Z,3.43
2023-01-28T23:53:03.265Z,3.41
2023-01-28T23:55:14.124Z,3.41
2023-01-28T23:57:26.959Z,3.41
2023-01-28T23:59:31.689Z,3.41
